Time;durP1;ratioP1;P1;durP2;ratioP2;P2;SDS_P1;SDS_P2;PMS_P1;PMS_P2;Temp;Humidity;BMP_temperature;BMP_pressure;BME280_temperature;BME280_humidity;BME280_pressure;Samples;Min_cycle;Max_cycle;Signal;HPM_P1;HPM_P2
2023/03/22 00:01:22;;;;;;;10.48;9.27;;;;;;;19.09;53.16;101043.13;5072545;28;20501;-49
2023/03/22 00:03:51;;;;;;;15.45;9.98;;;;;;;19.09;53.30;101042.28;5072898;28;20398;-53
2023/03/22 00:06:19;;;;;;;8.75;7.85;;;;;;;19.08;53.03;101036.06;5071240;28;20402;-48
2023/03/22 00:08:52;;;;;;;12.13;8.98;;;;;;;19.08;53.05;101043.22;5072424;28;20060;-48
2023/03/22 00:11:21;;;;;;;12.73;10.38;;;;;;;19.07;53.01;101045.06;5075240;28;20398;-49
2023/03/22 00:13:51;;;;;;;9.88;8.90;;;;;;;19.07;53.05;101038.84;5076073;28;20474;-50
2023/03/22 00:16:20;;;;;;;11.40;9.40;;;;;;;19.07;52.95;101034.34;5076289;28;20037;-49
2023/03/22 00:18:48;;;;;;;10.02;9.02;;;;;;;19.06;53.07;101038.00;5075920;28;20052;-47
2023/03/22 00:21:16;;;;;;;11.40;9.13;;;;;;;19.06;52.96;101039.84;5075785;28;20048;-47
2023/03/22 00:23:44;;;;;;;11.93;8.25;;;;;;;19.05;52.95;101036.31;5075877;28;20040;-48
2023/03/22 00:26:13;;;;;;;9.20;8.23;;;;;;;19.06;52.80;101042.53;5075806;28;20076;-47
2023/03/22 00:28:42;;;;;;;10.18;8.98;;;;;;;19.05;52.99;101047.03;5075676;28;20059;-50
2023/03/22 00:31:10;;;;;;;10.98;9.35;;;;;;;19.07;52.78;101041.53;5074681;28;20529;-49
2023/03/22 00:33:37;;;;;;;9.88;8.45;;;;;;;19.06;52.94;101042.53;5076106;28;20059;-48
2023/03/22 00:36:08;;;;;;;10.63;9.00;;;;;;;19.06;52.91;101042.53;5075713;28;20047;-49
2023/03/22 00:38:35;;;;;;;9.75;8.75;;;;;;;19.03;52.75;101036.41;5075856;28;20501;-48
2023/03/22 00:41:13;;;;;;;10.93;8.65;;;;;;;19.05;52.81;101039.00;5075925;28;20402;-52
2023/03/22 00:43:40;;;;;;;12.32;8.88;;;;;;;19.05;52.77;101030.09;5075280;28;20049;-50
2023/03/22 00:46:09;;;;;;;9.95;7.70;;;;;;;19.04;52.75;101023.88;5075298;28;20048;-50
2023/03/22 00:48:37;;;;;;;8.95;8.02;;;;;;;19.04;52.76;101023.88;5075668;28;20052;-48
2023/03/22 00:51:06;;;;;;;9.85;8.48;;;;;;;19.03;52.80;101016.78;5071798;28;20056;-50
2023/03/22 00:53:36;;;;;;;9.63;7.82;;;;;;;19.03;52.61;101017.63;5069714;28;20067;-51
2023/03/22 00:56:04;;;;;;;9.98;8.60;;;;;;;19.03;52.61;101008.72;5074661;28;20056;-50
2023/03/22 00:58:42;;;;;;;11.23;8.20;;;;;;;19.03;52.77;101014.09;5074564;28;20475;-49
2023/03/22 01:01:13;;;;;;;9.27;8.07;;;;;;;19.03;52.47;101014.94;5075157;28;20471;-49
2023/03/22 01:03:42;;;;;;;9.65;7.68;;;;;;;19.03;52.75;101008.72;5074112;28;20052;-52
2023/03/22 01:06:13;;;;;;;9.65;7.70;;;;;;;19.03;52.80;101006.03;5073996;28;20051;-49
2023/03/22 01:08:40;;;;;;;9.57;8.57;;;;;;;19.02;52.70;100994.47;5073856;28;20067;-49
2023/03/22 01:11:08;;;;;;;11.07;7.68;;;;;;;19.03;52.45;101003.38;5074964;28;20052;-49
2023/03/22 01:13:36;;;;;;;9.43;8.32;;;;;;;19.02;52.70;100996.31;5074894;28;20044;-49
2023/03/22 01:16:05;;;;;;;8.88;7.72;;;;;;;19.02;52.63;100994.47;5073971;28;20059;-48
2023/03/22 01:18:34;;;;;;;9.07;7.60;;;;;;;19.01;52.61;100991.91;5074681;28;20051;-47
2023/03/22 01:21:02;;;;;;;8.93;7.28;;;;;;;19.02;52.61;100998.97;5073649;28;20052;-48
2023/03/22 01:23:30;;;;;;;11.23;8.02;;;;;;;19.01;52.69;100997.28;5073034;28;20055;-47
2023/03/22 01:25:58;;;;;;;8.57;7.47;;;;;;;19.01;52.69;100992.78;5062780;28;20060;-47
2023/03/22 01:28:26;;;;;;;9.45;8.43;;;;;;;19.01;52.52;100997.28;5054530;28;20056;-47
2023/03/22 01:30:54;;;;;;;10.40;7.97;;;;;;;19.02;52.48;100996.31;5054500;28;20411;-47
2023/03/22 01:33:21;;;;;;;11.32;8.32;;;;;;;19.00;52.83;100992.91;5054823;28;20522;-48
2023/03/22 01:35:50;;;;;;;10.23;8.13;;;;;;;19.01;52.78;100999.97;5053069;28;20049;-48
2023/03/22 01:38:19;;;;;;;10.38;7.75;;;;;;;19.00;52.77;100992.91;5053288;28;20059;-48
2023/03/22 01:40:54;;;;;;;9.48;8.18;;;;;;;19.00;52.73;100995.59;5053623;28;20053;-47
2023/03/22 01:43:21;;;;;;;8.75;7.85;;;;;;;19.00;52.69;100996.44;5053545;28;20058;-47
2023/03/22 01:45:51;;;;;;;8.98;7.93;;;;;;;18.99;52.60;100994.72;5053875;28;20379;-51
2023/03/22 01:48:25;;;;;;;9.60;7.68;;;;;;;19.00;52.59;100998.28;5053158;28;20499;-49
2023/03/22 01:51:11;;;;;;;9.88;7.60;;;;;;;19.00;52.61;100995.59;5054031;28;20048;-49
2023/03/22 01:54:11;;;;;;;10.90;7.93;;;;;;;18.99;52.72;101000.06;5053535;28;20044;-48
2023/03/22 01:56:40;;;;;;;8.18;7.38;;;;;;;18.99;52.64;100996.53;5052754;28;20059;-49
2023/03/22 01:59:14;;;;;;;9.18;7.10;;;;;;;18.99;52.62;100992.03;5063944;28;20486;-50
2023/03/22 02:02:09;;;;;;;9.32;7.50;;;;;;;18.98;52.61;100998.38;5073694;28;20498;-49
2023/03/22 02:04:38;;;;;;;10.38;8.30;;;;;;;18.98;52.56;100993.00;5072478;28;20045;-48
2023/03/22 02:07:14;;;;;;;8.60;7.03;;;;;;;18.98;52.58;100997.53;5073001;28;20047;-47
2023/03/22 02:09:45;;;;;;;7.93;7.10;;;;;;;18.98;52.74;100987.66;5072782;28;20060;-48
2023/03/22 02:12:16;;;;;;;7.95;7.15;;;;;;;18.98;52.79;100992.16;5072697;28;20684;-48
2023/03/22 02:15:22;;;;;;;8.20;6.97;;;;;;;18.98;52.70;100994.84;5073011;28;20048;-50
2023/03/22 02:18:15;;;;;;;9.63;7.55;;;;;;;18.97;52.67;100985.94;5072920;28;20490;-47
2023/03/22 02:20:51;;;;;;;7.25;6.32;;;;;;;18.97;52.77;100987.78;5072561;28;20045;-48
2023/03/22 02:23:54;;;;;;;8.07;7.28;;;;;;;18.97;52.61;100977.91;5072533;28;20052;-47
2023/03/22 02:26:46;;;;;;;10.60;7.55;;;;;;;18.97;52.68;100983.25;5061707;28;20051;-48
2023/03/22 02:29:18;;;;;;;8.73;7.47;;;;;;;18.96;52.59;100984.25;5073397;28;20048;-52
2023/03/22 02:31:54;;;;;;;9.40;6.80;;;;;;;18.97;52.57;100979.72;5072754;28;20052;-47
2023/03/22 02:34:46;;;;;;;9.15;7.10;;;;;;;18.97;52.74;100985.94;5072460;28;20056;-47
2023/03/22 02:37:26;;;;;;;9.95;6.60;;;;;;;18.97;52.62;100982.41;5072281;28;20047;-49
2023/03/22 02:40:02;;;;;;;8.10;6.88;;;;;;;18.97;52.85;100977.06;5073634;28;20052;-48
2023/03/22 02:42:32;;;;;;;8.40;6.90;;;;;;;18.96;52.63;100981.56;5073245;28;20059;-48
2023/03/22 02:45:23;;;;;;;8.50;7.57;;;;;;;18.95;52.70;100979.84;5071971;28;20079;-49
2023/03/22 02:48:15;;;;;;;7.43;6.10;;;;;;;18.96;52.63;100986.94;5072141;28;20048;-48
2023/03/22 02:50:52;;;;;;;7.65;6.18;;;;;;;18.96;52.80;100978.88;5072592;28;20111;-47
2023/03/22 02:53:39;;;;;;;8.05;6.68;;;;;;;18.96;52.86;100983.41;5067316;28;20045;-47
2023/03/22 02:56:12;;;;;;;8.35;6.40;;;;;;;18.98;52.67;100981.44;5071163;28;20051;-47
2023/03/22 02:58:56;;;;;;;7.88;7.07;;;;;;;18.98;52.83;100984.13;5073184;28;20048;-50
2023/03/22 03:01:32;;;;;;;9.10;6.85;;;;;;;18.97;52.83;100983.25;5072400;28;20049;-47
2023/03/22 03:04:03;;;;;;;9.98;6.53;;;;;;;18.97;52.62;100990.47;5073105;28;20052;-49
2023/03/22 03:06:37;;;;;;;9.93;6.60;;;;;;;18.96;52.75;100997.66;5073050;28;20368;-49
2023/03/22 03:09:07;;;;;;;8.50;6.60;;;;;;;18.98;52.58;101008.25;5072382;28;20052;-49
2023/03/22 03:11:35;;;;;;;8.13;6.30;;;;;;;18.96;52.91;100999.50;5073036;28;20048;-51
2023/03/22 03:14:03;;;;;;;8.20;6.75;;;;;;;18.96;52.75;100999.50;5071931;28;20052;-47
2023/03/22 03:16:35;;;;;;;8.05;6.50;;;;;;;18.96;52.91;100995.00;5071918;28;20055;-49
2023/03/22 03:19:42;;;;;;;7.78;6.60;;;;;;;18.96;52.71;100997.66;5072259;28;20521;-47
2023/03/22 03:22:34;;;;;;;8.48;6.32;;;;;;;18.95;52.54;100998.63;5071891;28;20529;-47
2023/03/22 03:25:13;;;;;;;7.78;6.53;;;;;;;18.95;52.63;100993.25;5068850;28;20049;-51
2023/03/22 03:27:49;;;;;;;11.15;6.88;;;;;;;18.96;52.81;101004.88;5052528;28;20041;-51
2023/03/22 03:30:30;;;;;;;8.00;6.55;;;;;;;18.95;52.62;101006.66;5052143;28;20484;-49
2023/03/22 03:33:03;;;;;;;8.57;6.55;;;;;;;18.95;52.66;100997.78;5053111;28;20048;-49
2023/03/22 03:35:37;;;;;;;6.82;6.13;;;;;;;18.94;52.66;100999.59;5052826;28;20076;-48
2023/03/22 03:38:12;;;;;;;9.18;6.97;;;;;;;18.94;52.60;101002.28;5051600;28;20080;-47
2023/03/22 03:40:44;;;;;;;7.15;6.28;;;;;;;18.94;52.73;101006.81;5051743;28;20061;-48
2023/03/22 03:43:13;;;;;;;8.25;6.18;;;;;;;18.95;52.66;101003.13;5051633;28;20071;-48
2023/03/22 03:45:41;;;;;;;9.02;5.97;;;;;;;18.94;52.51;101013.03;5053946;28;20052;-48
2023/03/22 03:48:17;;;;;;;7.93;6.18;;;;;;;18.94;52.69;101020.22;5055445;28;20049;-47
2023/03/22 03:50:46;;;;;;;8.10;6.75;;;;;;;18.95;52.62;101029.97;5056722;28;20049;-49
2023/03/22 03:53:13;;;;;;;9.00;6.85;;;;;;;18.94;52.72;101017.53;5056496;28;20053;-48
2023/03/22 03:55:41;;;;;;;8.00;6.57;;;;;;;18.94;52.63;101022.91;5055060;28;20371;-49
2023/03/22 03:58:09;;;;;;;7.63;6.15;;;;;;;18.94;52.63;101025.59;5054780;28;20087;-50
2023/03/22 04:00:37;;;;;;;9.48;7.18;;;;;;;18.93;52.43;101024.75;5073365;28;20055;-47
2023/03/22 04:03:27;;;;;;;7.55;6.78;;;;;;;18.94;52.63;101028.28;5075978;28;20040;-47
2023/03/22 04:06:13;;;;;;;6.97;6.20;;;;;;;18.94;52.62;101033.63;5083070;28;20055;-47
2023/03/22 04:08:45;;;;;;;6.57;5.95;;;;;;;18.93;52.49;101026.56;5075422;28;20056;-47
2023/03/22 04:11:15;;;;;;;7.60;6.35;;;;;;;18.93;52.56;101029.25;5075001;28;20051;-48
2023/03/22 04:13:46;;;;;;;7.80;5.93;;;;;;;18.92;52.47;101033.78;5074925;28;20044;-49
2023/03/22 04:16:18;;;;;;;7.18;6.20;;;;;;;18.93;52.80;101029.25;5075201;28;20411;-49
2023/03/22 04:18:46;;;;;;;8.25;6.50;;;;;;;18.92;52.48;101031.09;5074839;28;20406;-49
2023/03/22 04:21:15;;;;;;;7.70;6.20;;;;;;;18.91;52.55;101032.03;5074798;28;20422;-50
2023/03/22 04:24:01;;;;;;;7.97;6.43;;;;;;;18.92;52.45;101024.84;5076091;28;20057;-49
2023/03/22 04:26:34;;;;;;;9.68;6.63;;;;;;;18.92;52.40;101025.72;5075377;28;20402;-47
2023/03/22 04:29:24;;;;;;;7.00;6.22;;;;;;;18.92;52.46;101035.56;5075439;28;20495;-48
2023/03/22 04:31:58;;;;;;;7.10;6.13;;;;;;;18.92;52.41;101032.88;5074857;28;20383;-48
2023/03/22 04:34:45;;;;;;;7.47;6.22;;;;;;;18.92;52.42;101035.56;5075857;28;20487;-49
2023/03/22 04:37:15;;;;;;;8.93;6.25;;;;;;;18.92;52.40;101032.88;5074639;28;20055;-47
2023/03/22 04:39:56;;;;;;;8.00;5.90;;;;;;;18.91;52.17;101036.56;5074320;28;20403;-48
2023/03/22 04:43:02;;;;;;;6.95;6.25;;;;;;;18.91;52.25;101044.59;5075455;28;20478;-52
2023/03/22 04:45:53;;;;;;;7.88;6.05;;;;;;;18.90;52.43;101043.75;5074877;28;20498;-52
2023/03/22 04:48:26;;;;;;;6.13;5.53;;;;;;;18.91;52.18;101040.09;5074028;28;20048;-50
2023/03/22 04:50:55;;;;;;;8.20;6.68;;;;;;;18.91;52.33;101036.56;5075826;28;20052;-50
2023/03/22 04:53:26;;;;;;;7.13;6.35;;;;;;;18.90;52.00;101043.75;5074146;28;20057;-50
2023/03/22 04:55:58;;;;;;;6.32;5.70;;;;;;;18.91;52.29;101044.59;5064766;28;20419;-49
2023/03/22 04:58:27;;;;;;;7.10;6.03;;;;;;;18.91;52.25;101044.59;5052955;28;20060;-50
2023/03/22 05:00:54;;;;;;;7.38;6.68;;;;;;;18.89;52.19;101042.06;5055053;28;20045;-50
2023/03/22 05:03:22;;;;;;;7.97;5.97;;;;;;;18.91;52.43;101047.28;5054284;28;20072;-50
2023/03/22 05:06:00;;;;;;;6.47;5.47;;;;;;;18.90;52.21;101041.06;5054021;28;20068;-48
2023/03/22 05:08:37;;;;;;;7.30;6.20;;;;;;;18.90;52.33;101042.91;5053933;28;20049;-48
2023/03/22 05:11:12;;;;;;;7.05;5.95;;;;;;;18.90;52.19;101049.13;5053798;28;20052;-50
2023/03/22 05:13:41;;;;;;;7.53;5.82;;;;;;;18.88;51.92;101045.72;5054036;28;20061;-47
2023/03/22 05:16:09;;;;;;;8.23;6.60;;;;;;;18.89;52.25;101049.25;5053905;28;20045;-49
2023/03/22 05:18:45;;;;;;;6.60;6.00;;;;;;;18.89;52.16;101046.56;5053352;28;20419;-49
2023/03/22 05:21:14;;;;;;;7.32;6.00;;;;;;;18.89;52.21;101046.56;5053581;28;20056;-47
2023/03/22 05:23:44;;;;;;;8.15;6.30;;;;;;;18.87;52.30;101043.16;5053555;28;20066;-47
2023/03/22 05:26:19;;;;;;;6.10;5.43;;;;;;;18.88;52.22;101051.09;5065743;28;20075;-51
2023/03/22 05:28:46;;;;;;;6.82;6.22;;;;;;;18.88;52.21;101052.88;5074298;28;20044;-50
2023/03/22 05:31:21;;;;;;;7.05;5.68;;;;;;;18.88;52.22;101051.09;5073646;28;20067;-49
2023/03/22 05:33:55;;;;;;;7.35;6.13;;;;;;;18.87;52.19;101049.34;5073313;28;20502;-49
2023/03/22 05:36:28;;;;;;;6.43;5.75;;;;;;;18.88;52.12;101052.88;5074345;28;20052;-49
2023/03/22 05:39:16;;;;;;;7.63;6.05;;;;;;;18.90;52.19;101059.00;5074397;28;20669;-50
2023/03/22 05:41:45;;;;;;;8.05;6.00;;;;;;;18.88;52.17;101061.81;5072998;28;20521;-49
2023/03/22 05:44:13;;;;;;;7.20;5.72;;;;;;;18.89;52.23;101060.00;5072811;28;20048;-48
2023/03/22 05:46:49;;;;;;;9.30;5.47;;;;;;;18.88;52.20;101059.13;5072968;28;20052;-47
2023/03/22 05:49:30;;;;;;;8.85;5.75;;;;;;;18.89;52.27;101060.00;5074372;28;20063;-47
2023/03/22 05:51:57;;;;;;;7.35;5.20;;;;;;;18.88;52.35;101060.94;5072928;28;20055;-47
2023/03/22 05:54:36;;;;;;;9.45;5.88;;;;;;;18.88;52.43;101060.94;5072893;28;20057;-49
2023/03/22 05:57:05;;;;;;;7.53;6.28;;;;;;;18.88;52.23;101063.63;5069302;28;20047;-49
2023/03/22 05:59:32;;;;;;;6.55;5.55;;;;;;;18.88;52.36;101063.63;5072154;28;20053;-50
2023/03/22 06:02:00;;;;;;;9.30;5.75;;;;;;;18.87;52.32;101059.25;5073099;28;20052;-49
2023/03/22 06:04:30;;;;;;;8.48;6.25;;;;;;;18.87;52.38;101065.47;5072707;28;20060;-48
2023/03/22 06:07:01;;;;;;;8.45;5.68;;;;;;;18.87;52.29;101065.47;5072633;28;20479;-50
2023/03/22 06:09:49;;;;;;;6.50;5.82;;;;;;;18.87;52.37;101062.78;5073183;28;20060;-48
2023/03/22 06:12:23;;;;;;;6.68;5.93;;;;;;;18.87;52.38;101062.78;5072602;28;20044;-49
2023/03/22 06:15:08;;;;;;;5.72;4.75;;;;;;;18.88;52.54;101064.50;5072661;28;20052;-49
2023/03/22 06:18:00;;;;;;;6.20;4.70;;;;;;;18.88;52.40;101071.66;5072206;28;20063;-51
2023/03/22 06:20:31;;;;;;;9.30;5.38;;;;;;;18.88;52.32;101071.66;5072518;28;20045;-49
2023/03/22 06:23:03;;;;;;;6.20;5.45;;;;;;;18.88;52.26;101071.66;5072103;28;20048;-50
2023/03/22 06:25:31;;;;;;;6.30;5.20;;;;;;;18.88;52.25;101066.31;5072162;28;20052;-47
2023/03/22 06:27:59;;;;;;;6.45;5.38;;;;;;;18.87;52.12;101064.59;5072351;28;20048;-47
2023/03/22 06:30:28;;;;;;;7.18;5.40;;;;;;;18.87;52.32;101065.47;5072388;28;20063;-49
2023/03/22 06:33:35;;;;;;;9.40;5.15;;;;;;;18.87;52.31;101069.97;5071987;28;20048;-49
2023/03/22 06:36:19;;;;;;;7.13;5.97;;;;;;;18.86;52.31;101070.97;5070464;28;20044;-49
2023/03/22 06:39:22;;;;;;;6.68;5.05;;;;;;;18.87;52.31;101081.56;5053693;28;20053;-49
2023/03/22 06:41:51;;;;;;;5.45;4.80;;;;;;;18.87;52.29;101075.34;5072123;28;20053;-50
2023/03/22 06:44:18;;;;;;;7.28;5.72;;;;;;;18.86;52.20;101079.00;5073619;28;20364;-47
2023/03/22 06:46:51;;;;;;;;;;;;;;;18.86;52.25;101087.91;5080190;28;20475;-47
2023/03/22 06:49:44;;;;;;;8.10;5.57;;;;;;;18.86;52.39;101089.72;5072606;28;20364;-48
2023/03/22 06:52:25;;;;;;;6.25;4.85;;;;;;;18.86;52.28;101087.06;5072389;28;20049;-47
2023/03/22 06:54:52;;;;;;;8.40;5.28;;;;;;;18.87;52.23;101086.06;5071811;28;20044;-47
2023/03/22 06:57:20;;;;;;;6.60;4.78;;;;;;;18.85;52.28;101080.84;5067518;28;20056;-49
2023/03/22 06:59:47;;;;;;;7.22;4.90;;;;;;;18.86;52.14;101079.00;5050554;28;20049;-48
2023/03/22 07:02:14;;;;;;;5.97;4.97;;;;;;;18.85;52.23;101083.53;5051840;28;20053;-47
2023/03/22 07:05:00;;;;;;;7.53;5.43;;;;;;;18.86;52.14;101090.59;5051337;28;20056;-49
2023/03/22 07:07:27;;;;;;;7.10;4.88;;;;;;;18.86;52.21;101095.09;5052028;28;20053;-49
2023/03/22 07:09:55;;;;;;;8.05;4.95;;;;;;;18.87;52.25;101102.16;5051739;28;20053;-49
2023/03/22 07:12:23;;;;;;;7.00;5.30;;;;;;;18.86;52.10;101095.09;5051791;28;20064;-52
2023/03/22 07:14:51;;;;;;;8.52;5.57;;;;;;;18.85;52.17;101094.25;5052073;28;20080;-47
2023/03/22 07:17:42;;;;;;;9.13;5.60;;;;;;;18.85;52.25;101099.63;5051784;28;20045;-50
2023/03/22 07:20:10;;;;;;;5.88;5.28;;;;;;;18.86;52.17;101100.47;5053617;28;20056;-49
2023/03/22 07:22:37;;;;;;;7.15;5.40;;;;;;;18.86;52.20;101103.16;5056226;28;20056;-47
2023/03/22 07:25:05;;;;;;;5.95;5.28;;;;;;;18.86;52.42;101112.03;5055243;28;20511;-49
2023/03/22 07:27:33;;;;;;;7.70;5.88;;;;;;;18.87;52.33;101110.22;5055704;28;20048;-50
2023/03/22 07:30:00;;;;;;;6.93;5.30;;;;;;;18.86;52.27;101093.25;5055576;28;20068;-50
2023/03/22 07:32:31;;;;;;;7.30;5.10;;;;;;;18.87;52.26;101094.13;5055996;28;20403;-52
2023/03/22 07:35:10;;;;;;;9.55;5.28;;;;;;;18.87;52.36;101105.69;5056834;28;20061;-52
2023/03/22 07:37:39;;;;;;;8.90;5.20;;;;;;;18.88;52.32;101103.88;5055617;28;20037;-48
2023/03/22 07:40:16;;;;;;;6.82;4.75;;;;;;;18.88;52.19;101104.75;5056068;28;20048;-48
2023/03/22 07:42:43;;;;;;;6.72;5.15;;;;;;;18.88;52.35;101103.88;5055556;28;20056;-51
2023/03/22 07:45:34;;;;;;;8.45;5.03;;;;;;;18.88;52.58;101099.38;5055518;28;20059;-49
2023/03/22 07:48:22;;;;;;;9.02;5.25;;;;;;;18.92;52.65;101110.69;5055876;28;20053;-49
2023/03/22 07:51:16;;;;;;;8.00;5.20;;;;;;;18.93;52.38;101104.38;5047570;28;20410;-50
2023/03/22 07:53:43;;;;;;;8.88;5.30;;;;;;;18.94;52.39;101112.28;5055161;28;20521;-49
2023/03/22 07:56:11;;;;;;;11.82;6.28;;;;;;;18.95;52.35;101099.72;5055534;28;20049;-48
2023/03/22 07:58:38;;;;;;;13.80;7.43;;;;;;;18.95;52.15;101100.56;5056629;28;20045;-50
2023/03/22 08:01:08;;;;;;;9.30;6.40;;;;;;;18.96;52.20;101107.66;5055605;28;20418;-49
2023/03/22 08:03:52;;;;;;;8.82;6.03;;;;;;;18.96;52.11;101104.97;5055251;28;20498;-50
2023/03/22 08:06:39;;;;;;;11.27;6.35;;;;;;;18.97;52.13;101109.38;5055660;28;20056;-50
2023/03/22 08:09:07;;;;;;;7.47;5.15;;;;;;;18.98;52.30;101110.22;5055114;28;20053;-50
2023/03/22 08:11:35;;;;;;;7.95;5.50;;;;;;;18.99;52.97;101107.41;5056303;28;20060;-48
2023/03/22 08:14:02;;;;;;;7.45;5.05;;;;;;;19.00;53.03;101106.44;5055366;28;20480;-49
2023/03/22 08:16:32;;;;;;;7.57;4.82;;;;;;;19.01;52.74;101105.47;5055278;28;20044;-48
2023/03/22 08:19:02;;;;;;;7.35;5.72;;;;;;;19.01;52.52;101099.25;5055134;28;20052;-48
2023/03/22 08:21:33;;;;;;;6.07;4.22;;;;;;;19.03;53.00;101102.63;5054857;28;20064;-49
2023/03/22 08:24:01;;;;;;;7.40;4.88;;;;;;;19.04;52.95;101109.75;5072035;28;20052;-52
2023/03/22 08:26:55;;;;;;;;;;;;;;;19.05;52.58;101111.44;5075938;28;20064;-50
2023/03/22 08:29:30;;;;;;;10.43;5.07;;;;;;;19.05;52.77;101108.75;5074379;28;20374;-50
2023/03/22 08:32:00;;;;;;;7.60;5.43;;;;;;;19.06;52.67;101106.91;5074070;28;20052;-49
2023/03/22 08:34:30;;;;;;;6.93;4.20;;;;;;;19.09;52.71;101112.91;5074603;28;20418;-49
2023/03/22 08:36:57;;;;;;;9.65;4.80;;;;;;;19.09;52.82;101106.69;5075579;28;20052;-51
2023/03/22 08:39:25;;;;;;;7.50;4.78;;;;;;;19.09;52.76;101112.06;5074537;28;20060;-51
2023/03/22 08:42:11;;;;;;;7.05;4.28;;;;;;;19.11;52.70;101108.25;5074389;28;20055;-51
2023/03/22 08:44:38;;;;;;;10.50;4.50;;;;;;;19.13;52.69;101111.69;5074306;28;20517;-50
2023/03/22 08:47:05;;;;;;;7.07;4.35;;;;;;;19.13;52.69;101113.50;5071654;28;20057;-50
2023/03/22 08:49:33;;;;;;;6.30;4.13;;;;;;;19.15;52.69;101116.91;5054841;28;20414;-49
2023/03/22 08:52:09;;;;;;;5.72;3.90;;;;;;;19.16;52.65;101115.91;5059170;28;20049;-52
2023/03/22 08:55:04;;;;;;;10.93;4.57;;;;;;;19.17;52.71;101115.81;5076263;28;20063;-50
2023/03/22 08:58:00;;;;;;;5.68;4.55;;;;;;;19.19;52.62;101123.72;5056338;28;20060;-50
2023/03/22 09:00:35;;;;;;;5.57;4.30;;;;;;;19.19;52.50;101113.00;5073075;28;20382;-50
2023/03/22 09:03:42;;;;;;;7.72;4.63;;;;;;;19.20;52.42;101117.38;5074529;28;20055;-50
2023/03/22 09:06:10;;;;;;;5.80;4.88;;;;;;;19.20;52.49;101120.06;5073585;28;20493;-49
2023/03/22 09:08:40;;;;;;;6.47;4.82;;;;;;;19.21;52.49;101121.78;5074226;28;20483;-49
2023/03/22 09:11:12;;;;;;;5.97;4.70;;;;;;;19.22;52.60;101124.34;5074168;28;20414;-50
2023/03/22 09:13:42;;;;;;;6.88;4.50;;;;;;;19.23;52.36;101120.66;5075349;28;20281;-49
2023/03/22 09:16:10;;;;;;;7.80;5.53;;;;;;;19.24;52.34;101119.72;5075246;28;20360;-49
2023/03/22 09:18:39;;;;;;;7.47;4.93;;;;;;;19.25;52.34;101123.25;5074113;28;20052;-49
2023/03/22 09:21:13;;;;;;;9.60;5.55;;;;;;;19.25;52.28;101120.56;5073826;28;20052;-48
2023/03/22 09:24:03;;;;;;;10.30;6.47;;;;;;;19.24;52.04;101125.09;5074878;28;20391;-51
2023/03/22 09:26:44;;;;;;;12.30;5.97;;;;;;;19.24;51.75;101125.09;5073782;28;20056;-49
2023/03/22 09:29:14;;;;;;;9.45;6.75;;;;;;;19.24;51.88;101118.84;5074842;28;20055;-50
2023/03/22 09:31:43;;;;;;;7.63;5.03;;;;;;;19.24;52.02;101122.41;5074818;28;20076;-50
2023/03/22 09:34:17;;;;;;;9.73;6.50;;;;;;;19.24;51.72;101127.78;5073877;28;20052;-49
2023/03/22 09:36:46;;;;;;;8.57;5.65;;;;;;;19.24;51.96;101122.41;5074076;28;20060;-50
2023/03/22 09:39:16;;;;;;;6.40;4.72;;;;;;;19.24;51.86;101122.41;5074609;28;20053;-49
2023/03/22 09:41:50;;;;;;;6.88;4.70;;;;;;;19.25;51.96;101124.09;5073734;28;20060;-50
2023/03/22 09:44:54;;;;;;;9.07;5.70;;;;;;;19.25;52.01;101118.72;5074196;28;20055;-51
2023/03/22 09:47:33;;;;;;;7.05;5.68;;;;;;;19.27;52.02;101114.06;5069334;28;20517;-50
2023/03/22 09:50:27;;;;;;;8.55;4.85;;;;;;;19.29;52.00;101115.81;5074118;28;20048;-49
2023/03/22 09:52:54;;;;;;;8.43;5.20;;;;;;;19.29;51.96;101105.06;5053649;28;20049;-49
2023/03/22 09:56:14;;;;;;;7.85;5.22;;;;;;;19.30;52.11;101112.13;5054273;28;20056;-54
2023/03/22 09:59:14;;;;;;;11.10;7.88;;;;;;;19.30;51.17;101102.25;5053261;28;20053;-51
2023/03/22 10:01:55;;;;;;;9.48;6.72;;;;;;;19.31;51.53;101105.78;5054142;28;20045;-52
2023/03/22 10:04:33;;;;;;;10.18;7.63;;;;;;;19.31;51.31;101105.78;5054424;28;20041;-51
2023/03/22 10:07:28;;;;;;;14.13;7.32;;;;;;;19.31;51.61;101103.09;5053080;28;20049;-49
2023/03/22 10:10:16;;;;;;;9.77;6.22;;;;;;;19.32;51.53;101094.06;5054443;28;20051;-51
2023/03/22 10:13:22;;;;;;;11.02;6.78;;;;;;;19.30;51.57;101094.19;5054091;28;20056;-52
2023/03/22 10:15:55;;;;;;;10.25;8.15;;;;;;;19.30;50.77;101093.34;5053225;28;20060;-51
2023/03/22 10:18:28;;;;;;;10.00;8.00;;;;;;;19.31;51.25;101095.91;5054017;28;20056;-52
2023/03/22 10:21:01;;;;;;;11.88;10.07;;;;;;;19.30;50.51;101098.72;5053875;28;20529;-50
2023/03/22 10:24:04;;;;;;;14.32;10.35;;;;;;;19.27;50.10;101086.38;5053930;28;20487;-49
2023/03/22 10:26:35;;;;;;;11.48;9.10;;;;;;;19.27;50.64;101087.22;5053640;28;20049;-52
2023/03/22 10:29:15;;;;;;;11.05;8.25;;;;;;;19.28;50.79;101093.44;5053720;28;20049;-50
2023/03/22 10:31:43;;;;;;;8.07;7.03;;;;;;;19.29;51.17;101091.66;5053927;28;20057;-50
2023/03/22 10:34:32;;;;;;;9.90;8.82;;;;;;;19.27;50.90;101089.91;5053903;28;20051;-48
2023/03/22 10:37:02;;;;;;;9.32;7.35;;;;;;;19.27;51.07;101089.06;5053803;28;20048;-50
2023/03/22 10:39:34;;;;;;;12.35;7.47;;;;;;;19.28;50.97;101090.78;5053620;28;20045;-49
2023/03/22 10:42:11;;;;;;;8.05;6.85;;;;;;;19.29;51.38;101086.28;5053667;28;20041;-51
2023/03/22 10:44:46;;;;;;;9.98;7.13;;;;;;;19.29;51.30;101086.28;5053530;28;20072;-50
2023/03/22 10:47:20;;;;;;;9.52;7.28;;;;;;;19.28;51.20;101082.72;5053523;28;20387;-49
2023/03/22 10:49:54;;;;;;;7.47;6.65;;;;;;;19.29;51.11;101083.59;5053509;28;20045;-50
2023/03/22 10:52:56;;;;;;;9.25;6.97;;;;;;;19.30;51.16;101085.28;5053005;28;20048;-50
2023/03/22 10:55:24;;;;;;;12.02;7.05;;;;;;;19.29;51.17;101088.97;5052150;28;20052;-50
2023/03/22 10:58:11;;;;;;;10.43;7.18;;;;;;;19.29;51.23;101080.91;5052936;28;20396;-50
2023/03/22 11:00:44;;;;;;;9.57;6.47;;;;;;;19.28;51.33;101085.41;5052994;28;20399;-48
2023/03/22 11:03:35;;;;;;;8.02;6.90;;;;;;;19.26;51.14;101074.81;5052914;28;20041;-49
2023/03/22 11:06:21;;;;;;;9.57;6.72;;;;;;;19.29;51.25;101078.22;5053245;28;20060;-50
2023/03/22 11:08:53;;;;;;;7.03;5.85;;;;;;;19.27;51.22;101068.44;5052750;28;20056;-49
2023/03/22 11:11:24;;;;;;;9.88;6.53;;;;;;;19.27;51.20;101079.19;5052817;28;20525;-51
2023/03/22 11:14:22;;;;;;;9.50;5.97;;;;;;;19.27;51.10;101075.66;5052802;28;20048;-50
2023/03/22 11:16:59;;;;;;;8.55;6.32;;;;;;;19.27;51.05;101067.59;5050945;28;20053;-50
2023/03/22 11:19:35;;;;;;;7.65;6.03;;;;;;;19.27;51.32;101065.75;5052788;28;20483;-50
2023/03/22 11:22:25;;;;;;;8.55;6.70;;;;;;;19.27;51.29;101057.72;5052763;28;20472;-49
2023/03/22 11:24:55;;;;;;;10.00;6.88;;;;;;;19.27;51.40;101062.22;5053262;28;20056;-50
2023/03/22 11:27:28;;;;;;;9.43;6.88;;;;;;;19.27;51.34;101062.22;5052465;28;20061;-49
2023/03/22 11:30:15;;;;;;;8.43;6.18;;;;;;;19.27;51.52;101057.72;5052563;28;20048;-49
2023/03/22 11:32:43;;;;;;;9.43;6.65;;;;;;;19.27;51.40;101052.34;5052644;28;20056;-48
2023/03/22 11:35:19;;;;;;;9.13;6.60;;;;;;;19.27;51.07;101060.38;5052792;28;20041;-49
2023/03/22 11:37:54;;;;;;;8.15;6.18;;;;;;;19.27;51.28;101052.34;5052644;28;20388;-49
2023/03/22 11:40:32;;;;;;;7.45;6.07;;;;;;;19.27;51.39;101046.97;5052631;28;20052;-50
2023/03/22 11:43:23;;;;;;;6.60;5.28;;;;;;;19.26;51.43;101050.63;5052539;28;20487;-51
2023/03/22 11:45:56;;;;;;;7.97;6.28;;;;;;;19.27;51.36;101052.34;5051930;28;20438;-51
2023/03/22 11:48:26;;;;;;;8.55;5.93;;;;;;;19.26;51.29;101047.09;5052489;28;20064;-49
2023/03/22 11:51:03;;;;;;;8.63;5.50;;;;;;;19.26;51.29;101042.59;5052365;28;20033;-49
2023/03/22 11:53:33;;;;;;;6.13;4.55;;;;;;;19.27;51.04;101030.88;5052361;28;20064;-50
2023/03/22 11:56:06;;;;;;;7.90;4.97;;;;;;;19.27;51.01;101035.38;5052380;28;20495;-51
2023/03/22 11:58:36;;;;;;;6.78;4.93;;;;;;;19.27;51.01;101032.69;5052424;28;20052;-49
2023/03/22 12:01:04;;;;;;;6.55;5.18;;;;;;;19.26;51.20;101029.16;5052245;28;20067;-51
2023/03/22 12:03:36;;;;;;;7.15;5.03;;;;;;;19.27;50.90;101030.00;5052356;28;20510;-50